createdAt,value
2019-03-02T00:01:45.867Z,6.70
2019-03-02T00:04:16.764Z,6.80
2019-03-02T00:06:46.316Z,6.80
2019-03-02T00:09:15.889Z,6.80
2019-03-02T00:11:45.729Z,6.80
2019-03-02T00:14:15.733Z,6.80
2019-03-02T00:16:46.551Z,6.70
2019-03-02T00:19:16.120Z,6.80
2019-03-02T00:21:45.672Z,6.90
2019-03-02T00:24:15.504Z,6.80
2019-03-02T00:26:46.005Z,6.80
2019-03-02T00:29:16.860Z,6.80
2019-03-02T00:31:46.404Z,6.80
2019-03-02T00:34:16.248Z,6.70
2019-03-02T00:36:45.804Z,6.70
2019-03-02T00:39:18.914Z,6.70
2019-03-02T00:41:46.919Z,6.60
2019-03-02T00:44:16.860Z,6.60
2019-03-02T00:46:46.690Z,6.50
2019-03-02T00:49:19.598Z,6.50
2019-03-02T00:51:47.738Z,6.50
2019-03-02T00:54:17.296Z,6.50
2019-03-02T00:56:46.863Z,6.40
2019-03-02T00:59:16.409Z,6.40
2019-03-02T01:02:00.801Z,6.40
2019-03-02T01:04:29.585Z,6.30
2019-03-02T01:06:59.200Z,6.40
2019-03-02T01:09:29.100Z,6.40
2019-03-02T01:11:58.640Z,6.40
2019-03-02T01:14:28.698Z,6.40
2019-03-02T01:17:00.374Z,6.40
2019-03-02T01:19:30.284Z,6.40
2019-03-02T01:22:00.096Z,6.40
2019-03-02T01:24:30.221Z,6.40
2019-03-02T01:27:00.602Z,6.40
2019-03-02T01:29:30.268Z,6.30
2019-03-02T01:32:00.072Z,6.30
2019-03-02T01:34:30.512Z,6.40
2019-03-02T01:37:00.370Z,6.40
2019-03-02T01:39:30.207Z,6.40
2019-03-02T01:41:59.785Z,6.40
2019-03-02T01:44:29.937Z,6.50
2019-03-02T01:46:59.566Z,6.50
2019-03-02T01:49:29.761Z,6.40
2019-03-02T01:51:59.300Z,6.40
2019-03-02T01:54:28.878Z,6.40
2019-03-02T01:56:58.678Z,6.40
2019-03-02T01:59:28.226Z,6.40
2019-03-02T02:02:00.122Z,6.40
2019-03-02T02:04:29.856Z,6.40
2019-03-02T02:06:59.781Z,6.30
2019-03-02T02:09:29.331Z,6.30
2019-03-02T02:11:59.288Z,6.20
2019-03-02T02:14:29.513Z,6.20
2019-03-02T02:16:59.085Z,6.20
2019-03-02T02:19:28.640Z,6.20
2019-03-02T02:21:58.754Z,6.30
2019-03-02T02:24:29.775Z,6.30
2019-03-02T02:27:22.455Z,6.30
2019-03-02T02:29:51.693Z,6.30
2019-03-02T02:32:24.147Z,6.40
2019-03-02T02:34:56.430Z,6.40
2019-03-02T02:37:24.340Z,6.30
2019-03-02T02:39:53.886Z,6.30
2019-03-02T02:42:23.749Z,6.30
2019-03-02T02:44:53.300Z,6.20
2019-03-02T02:47:22.844Z,6.20
2019-03-02T02:49:52.625Z,6.10
2019-03-02T02:52:27.671Z,6.10
2019-03-02T02:54:57.415Z,6.10
2019-03-02T02:57:25.788Z,6.10
2019-03-02T02:59:55.332Z,6.10
2019-03-02T03:02:24.953Z,6.00
2019-03-02T03:04:54.814Z,6.10
2019-03-02T03:07:24.356Z,6.20
2019-03-02T03:10:06.007Z,6.10
2019-03-02T03:12:35.903Z,6.00
2019-03-02T03:15:05.833Z,5.90
2019-03-02T03:17:35.641Z,5.90
2019-03-02T03:20:17.944Z,5.80
2019-03-02T03:22:47.712Z,5.80
2019-03-02T03:25:18.054Z,5.70
2019-03-02T03:27:51.751Z,5.70
2019-03-02T03:30:33.890Z,5.70
2019-03-02T03:32:55.918Z,5.70
2019-03-02T03:35:23.195Z,5.70
2019-03-02T03:37:53.139Z,5.70
2019-03-02T03:40:25.469Z,5.80
2019-03-02T03:43:02.415Z,5.90
2019-03-02T03:45:27.986Z,6.00
2019-03-02T03:47:57.045Z,6.10
2019-03-02T03:50:26.661Z,6.20
2019-03-02T03:52:56.574Z,6.30
2019-03-02T03:55:27.480Z,6.40
2019-03-02T03:58:00.462Z,6.50
2019-03-02T04:00:40.420Z,6.50
2019-03-02T04:03:13.675Z,6.50
2019-03-02T04:05:42.217Z,6.60
2019-03-02T04:08:13.145Z,6.60
2019-03-02T04:10:42.697Z,6.60
2019-03-02T04:13:12.266Z,6.60
2019-03-02T04:15:43.544Z,6.60
2019-03-02T04:18:50.174Z,6.60
2019-03-02T04:21:23.309Z,6.60
2019-03-02T04:23:56.165Z,6.70
2019-03-02T04:26:24.301Z,6.60
2019-03-02T04:28:53.866Z,6.70
2019-03-02T04:31:23.722Z,6.70
2019-03-02T04:33:53.536Z,6.70
2019-03-02T04:36:23.112Z,6.70
2019-03-02T04:38:52.644Z,6.80
2019-03-02T04:41:22.260Z,6.70
2019-03-02T04:43:53.942Z,6.80
2019-03-02T04:46:23.301Z,6.80
2019-03-02T04:48:53.468Z,6.80
2019-03-02T04:51:23.173Z,6.80
2019-03-02T04:53:53.452Z,6.80
2019-03-02T04:56:24.142Z,6.80
2019-03-02T04:58:54.252Z,6.80
2019-03-02T05:01:23.808Z,6.80
2019-03-02T05:03:53.760Z,6.80
2019-03-02T05:06:24.613Z,6.70
2019-03-02T05:08:54.467Z,6.60
2019-03-02T05:11:24.044Z,6.60
2019-03-02T05:13:54.192Z,6.60
2019-03-02T05:16:25.498Z,6.70
2019-03-02T05:18:54.996Z,6.70
2019-03-02T05:21:24.576Z,6.80
2019-03-02T05:23:54.461Z,6.70
2019-03-02T05:26:24.388Z,6.80
2019-03-02T05:28:53.948Z,6.80
2019-03-02T05:31:23.719Z,6.80
2019-03-02T05:33:53.600Z,6.80
2019-03-02T05:36:26.670Z,6.80
2019-03-02T05:38:54.405Z,6.80
2019-03-02T05:41:24.265Z,6.80
2019-03-02T05:43:53.829Z,6.80
2019-03-02T05:46:25.589Z,6.80
2019-03-02T05:48:54.708Z,6.80
2019-03-02T05:51:24.271Z,6.80
2019-03-02T05:53:54.141Z,6.80
2019-03-02T05:56:26.012Z,6.80
2019-03-02T05:58:56.389Z,6.80
2019-03-02T06:01:25.941Z,6.80
2019-03-02T06:03:55.744Z,6.80
2019-03-02T06:06:25.319Z,6.80
2019-03-02T06:08:54.920Z,6.80
2019-03-02T06:11:24.493Z,6.80
2019-03-02T06:13:54.472Z,6.80
2019-03-02T06:16:24.385Z,6.80
2019-03-02T06:18:54.004Z,6.80
2019-03-02T06:21:23.564Z,6.80
2019-03-02T06:23:53.162Z,6.90
2019-03-02T06:26:23.021Z,6.90
2019-03-02T06:28:54.627Z,6.90
2019-03-02T06:31:23.900Z,6.80
2019-03-02T06:33:53.776Z,6.80
2019-03-02T06:36:23.588Z,6.80
2019-03-02T06:38:53.809Z,6.80
2019-03-02T06:41:23.620Z,6.80
2019-03-02T06:43:55.081Z,6.80
2019-03-02T06:46:24.679Z,6.80
2019-03-02T06:48:54.492Z,6.80
2019-03-02T06:51:24.300Z,6.80
2019-03-02T06:53:54.112Z,6.90
2019-03-02T06:56:23.921Z,6.90
2019-03-02T06:58:53.479Z,6.90
2019-03-02T07:01:24.711Z,6.90
2019-03-02T07:03:54.589Z,6.90
2019-03-02T07:06:24.132Z,6.90
2019-03-02T07:08:53.700Z,6.90
2019-03-02T07:11:24.112Z,6.90
2019-03-02T07:13:56.338Z,6.90
2019-03-02T07:16:25.152Z,6.90
2019-03-02T07:19:00.058Z,6.90
2019-03-02T07:21:29.736Z,7.00
2019-03-02T07:23:59.289Z,7.00
2019-03-02T07:26:28.864Z,7.00
2019-03-02T07:28:58.732Z,7.00
2019-03-02T07:31:38.688Z,7.00
2019-03-02T07:34:08.747Z,7.00
2019-03-02T07:36:39.635Z,7.00
2019-03-02T07:39:09.205Z,7.00
2019-03-02T07:41:38.748Z,7.00
2019-03-02T07:44:08.301Z,7.00
2019-03-02T07:46:38.104Z,7.00
2019-03-02T07:49:09.232Z,7.00
2019-03-02T07:51:41.492Z,7.10
2019-03-02T07:54:10.357Z,7.10
2019-03-02T07:56:39.911Z,7.10
2019-03-02T07:59:09.780Z,7.10
2019-03-02T08:01:40.008Z,7.10
2019-03-02T08:04:09.808Z,7.20
2019-03-02T08:06:39.353Z,7.20
2019-03-02T08:09:09.340Z,7.20
2019-03-02T08:11:39.344Z,7.20
2019-03-02T08:14:12.310Z,7.30
2019-03-02T08:16:40.601Z,7.30
2019-03-02T08:19:10.224Z,7.40
2019-03-02T08:21:49.458Z,7.40
2019-03-02T08:24:19.008Z,7.40
2019-03-02T08:26:48.868Z,7.50
2019-03-02T08:29:21.035Z,7.50
2019-03-02T08:31:50.092Z,7.50
2019-03-02T08:34:19.937Z,7.60
2019-03-02T08:36:50.310Z,7.60
2019-03-02T08:39:20.792Z,7.70
2019-03-02T08:41:50.598Z,7.70
2019-03-02T08:44:21.025Z,7.70
2019-03-02T08:46:50.916Z,7.70
2019-03-02T08:49:20.480Z,7.70
2019-03-02T08:51:50.371Z,7.80
2019-03-02T08:54:21.571Z,7.70
2019-03-02T08:56:51.828Z,7.80
2019-03-02T08:59:21.488Z,7.90
2019-03-02T09:04:27.909Z,8.00
2019-03-02T09:06:57.822Z,8.00
2019-03-02T09:09:28.040Z,8.10
2019-03-02T09:11:57.615Z,8.10
2019-03-02T09:14:27.561Z,8.20
2019-03-02T09:16:57.686Z,8.20
2019-03-02T09:19:27.287Z,8.20
2019-03-02T09:21:57.101Z,8.20
2019-03-02T09:24:26.917Z,8.20
2019-03-02T09:26:56.564Z,8.30
2019-03-02T09:29:26.184Z,8.30
2019-03-02T09:31:56.033Z,8.40
2019-03-02T09:34:30.861Z,8.40
2019-03-02T09:37:03.804Z,8.40
2019-03-02T09:39:37.341Z,8.30
2019-03-02T09:42:03.129Z,8.30
2019-03-02T09:44:41.880Z,8.30
2019-03-02T09:47:12.752Z,8.30
2019-03-02T09:49:44.478Z,8.30
2019-03-02T09:52:14.037Z,8.30
2019-03-02T09:54:44.065Z,8.30
2019-03-02T09:57:13.697Z,8.30
2019-03-02T09:59:45.396Z,8.40
2019-03-02T10:02:15.661Z,8.40
2019-03-02T10:04:45.797Z,8.50
2019-03-02T10:07:15.356Z,8.50
2019-03-02T10:09:45.313Z,8.60
2019-03-02T10:12:15.133Z,8.60
2019-03-02T10:14:44.808Z,8.60
2019-03-02T10:17:14.432Z,8.50
2019-03-02T10:19:49.834Z,8.50
2019-03-02T10:22:19.771Z,8.50
2019-03-02T10:24:53.213Z,8.60
2019-03-02T10:27:23.830Z,8.60
2019-03-02T10:29:53.749Z,8.60
2019-03-02T10:32:23.550Z,8.60
2019-03-02T10:34:53.100Z,8.60
2019-03-02T10:37:22.662Z,8.60
2019-03-02T10:39:52.297Z,8.50
2019-03-02T10:42:21.880Z,8.50
2019-03-02T10:44:53.730Z,8.60
2019-03-02T10:47:24.873Z,8.60
2019-03-02T10:49:54.457Z,8.70
2019-03-02T10:52:24.068Z,8.70
2019-03-02T10:54:55.627Z,8.70
2019-03-02T10:57:29.622Z,8.70
2019-03-02T10:59:59.269Z,8.70
2019-03-02T11:02:29.169Z,8.70
2019-03-02T11:05:21.119Z,8.60
2019-03-02T11:08:04.218Z,8.70
2019-03-02T11:10:52.192Z,8.60
2019-03-02T11:13:29.545Z,8.60
2019-03-02T11:16:20.544Z,8.60
2019-03-02T11:19:01.624Z,8.60
2019-03-02T11:21:53.351Z,8.50
2019-03-02T11:24:37.680Z,8.60
2019-03-02T11:27:19.901Z,8.70
2019-03-02T11:30:00.673Z,8.70
2019-03-02T11:32:43.249Z,8.70
2019-03-02T11:35:22.617Z,8.80
2019-03-02T11:38:03.990Z,8.90
2019-03-02T11:40:56.241Z,8.90
2019-03-02T11:43:56.651Z,9.00
2019-03-02T11:46:31.180Z,9.10
2019-03-02T11:49:29.776Z,9.10
2019-03-02T11:52:09.212Z,9.20
2019-03-02T11:55:00.948Z,9.20
2019-03-02T11:57:43.234Z,9.30
2019-03-02T12:00:37.767Z,9.40
2019-03-02T12:03:39.126Z,9.50
2019-03-02T12:06:26.805Z,9.80
2019-03-02T12:09:05.552Z,9.90
2019-03-02T12:12:10.972Z,10.10
2019-03-02T12:14:58.452Z,10.20
2019-03-02T12:17:43.715Z,10.30
2019-03-02T12:20:47.587Z,10.30
2019-03-02T12:23:37.651Z,10.40
2019-03-02T12:26:26.661Z,10.50
2019-03-02T12:29:28.006Z,10.60
2019-03-02T12:32:03.883Z,10.50
2019-03-02T12:34:42.825Z,10.40
2019-03-02T12:37:28.386Z,10.40
2019-03-02T12:40:18.251Z,10.40
2019-03-02T12:43:09.586Z,10.50
2019-03-02T12:45:45.844Z,10.50
2019-03-02T12:48:36.838Z,10.40
2019-03-02T12:51:21.865Z,10.30
2019-03-02T12:54:13.561Z,10.30
2019-03-02T12:56:52.586Z,10.20
2019-03-02T12:59:40.650Z,10.30
2019-03-02T13:02:16.080Z,10.30
2019-03-02T13:05:13.672Z,10.10
2019-03-02T13:08:14.693Z,10.00
2019-03-02T13:10:57.629Z,10.00
2019-03-02T13:13:43.820Z,9.90
2019-03-02T13:16:31.413Z,9.90
2019-03-02T13:19:19.096Z,9.90
2019-03-02T13:22:15.934Z,9.90
2019-03-02T13:24:57.720Z,9.90
2019-03-02T13:27:43.600Z,9.80
2019-03-02T13:30:25.710Z,9.80
2019-03-02T13:33:08.096Z,9.80
2019-03-02T13:36:00.701Z,9.80
2019-03-02T13:38:49.818Z,9.80
2019-03-02T13:41:43.005Z,9.90
2019-03-02T13:44:29.269Z,10.00
2019-03-02T13:47:18.228Z,10.00
2019-03-02T13:49:56.924Z,10.10
2019-03-02T13:52:35.360Z,10.10
2019-03-02T13:55:16.405Z,10.10
2019-03-02T13:58:05.092Z,10.20
2019-03-02T14:00:52.767Z,10.10
2019-03-02T14:03:39.900Z,10.10
2019-03-02T14:06:29.072Z,10.00
2019-03-02T14:09:16.153Z,10.00
2019-03-02T14:12:04.000Z,9.90
2019-03-02T14:14:59.777Z,9.90
2019-03-02T14:18:01.764Z,9.90
2019-03-02T14:20:37.796Z,9.90
2019-03-02T14:23:31.307Z,10.10
2019-03-02T14:26:20.144Z,10.30
2019-03-02T14:29:19.213Z,10.40
2019-03-02T14:32:20.084Z,10.40
2019-03-02T14:34:59.168Z,10.50
2019-03-02T14:37:38.728Z,10.50
2019-03-02T14:40:20.613Z,10.50
2019-03-02T14:43:15.811Z,10.50
2019-03-02T14:45:55.353Z,10.60
2019-03-02T14:48:41.045Z,10.70
2019-03-02T14:51:28.332Z,10.80
2019-03-02T14:54:20.640Z,10.80
2019-03-02T14:57:10.519Z,10.90
2019-03-02T15:00:05.008Z,11.00
2019-03-02T15:02:52.152Z,11.00
2019-03-02T15:05:29.981Z,11.10
2019-03-02T15:08:31.473Z,11.20
2019-03-02T15:11:13.562Z,11.20
2019-03-02T15:14:02.541Z,11.20
2019-03-02T15:16:45.148Z,11.10
2019-03-02T15:19:41.344Z,11.10
2019-03-02T15:22:14.766Z,11.10
2019-03-02T15:24:59.699Z,11.10
2019-03-02T15:27:56.710Z,11.10
2019-03-02T15:30:44.275Z,11.10
2019-03-02T15:33:33.926Z,11.20
2019-03-02T15:36:21.389Z,11.20
2019-03-02T15:39:08.096Z,11.20
2019-03-02T15:41:57.054Z,11.10
2019-03-02T15:44:46.626Z,11.00
2019-03-02T15:47:24.097Z,10.90
2019-03-02T15:50:02.629Z,10.90
2019-03-02T15:52:52.436Z,10.80
2019-03-02T15:55:41.199Z,10.70
2019-03-02T15:58:38.921Z,10.70
2019-03-02T16:01:32.785Z,10.70
2019-03-02T16:04:11.872Z,10.60
2019-03-02T16:07:07.033Z,10.60
2019-03-02T16:09:56.088Z,10.60
2019-03-02T16:12:33.761Z,10.50
2019-03-02T16:15:20.625Z,10.50
2019-03-02T16:18:00.957Z,10.50
2019-03-02T16:20:46.626Z,10.50
2019-03-02T16:23:38.876Z,10.50
2019-03-02T16:26:17.018Z,10.50
2019-03-02T16:28:57.224Z,10.50
2019-03-02T16:31:47.828Z,10.50
2019-03-02T16:34:36.900Z,10.50
2019-03-02T16:37:24.536Z,10.50
2019-03-02T16:40:22.156Z,10.50
2019-03-02T16:43:09.104Z,10.50
2019-03-02T16:45:58.468Z,10.50
2019-03-02T16:48:49.821Z,10.50
2019-03-02T16:51:33.417Z,10.40
2019-03-02T16:54:20.873Z,10.40
2019-03-02T16:57:10.628Z,10.40
2019-03-02T17:00:08.956Z,10.40
2019-03-02T17:02:55.197Z,10.30
2019-03-02T17:05:44.453Z,10.30
2019-03-02T17:08:35.290Z,10.30
2019-03-02T17:11:40.415Z,10.30
2019-03-02T17:14:35.249Z,10.20
2019-03-02T17:17:39.624Z,10.20
2019-03-02T17:20:18.000Z,10.20
2019-03-02T17:23:05.340Z,10.20
2019-03-02T17:25:49.528Z,10.20
2019-03-02T17:28:31.479Z,10.10
2019-03-02T17:31:16.407Z,10.10
2019-03-02T17:34:11.622Z,10.10
2019-03-02T17:36:59.761Z,10.10
2019-03-02T17:39:47.753Z,10.10
2019-03-02T17:42:36.457Z,10.10
2019-03-02T17:45:17.169Z,10.20
2019-03-02T17:48:05.146Z,10.10
2019-03-02T17:50:58.370Z,10.10
2019-03-02T17:53:44.570Z,10.10
2019-03-02T17:56:33.200Z,10.10
2019-03-02T17:59:21.148Z,10.10
2019-03-02T18:02:00.798Z,10.10
2019-03-02T18:04:39.347Z,10.10
2019-03-02T18:07:19.364Z,10.10
2019-03-02T18:10:10.914Z,10.00
2019-03-02T18:12:58.231Z,10.10
2019-03-02T18:15:47.589Z,10.10
2019-03-02T18:18:31.493Z,10.10
2019-03-02T18:20:59.997Z,10.10
2019-03-02T18:23:29.817Z,10.10
2019-03-02T18:26:06.481Z,10.10
2019-03-02T18:28:36.637Z,10.10
2019-03-02T18:31:06.504Z,10.10
2019-03-02T18:33:44.450Z,10.20
2019-03-02T18:36:13.330Z,10.20
2019-03-02T18:38:51.056Z,10.20
2019-03-02T18:41:20.900Z,10.20
2019-03-02T18:43:50.726Z,10.20
2019-03-02T18:46:20.378Z,10.20
2019-03-02T18:49:18.846Z,10.20
2019-03-02T18:52:06.393Z,10.20
2019-03-02T18:54:35.921Z,10.10
2019-03-02T18:57:05.853Z,10.10
2019-03-02T18:59:35.760Z,10.10
2019-03-02T19:02:11.504Z,10.20
2019-03-02T19:04:41.739Z,10.20
2019-03-02T19:07:11.364Z,10.20
2019-03-02T19:09:41.070Z,10.20
2019-03-02T19:12:11.362Z,10.20
2019-03-02T19:14:41.288Z,10.10
2019-03-02T19:17:11.200Z,10.10
2019-03-02T19:19:41.177Z,10.10
2019-03-02T19:22:10.746Z,10.10
2019-03-02T19:24:40.307Z,10.10
2019-03-02T19:27:25.067Z,10.10
2019-03-02T19:30:01.676Z,10.10
2019-03-02T19:32:33.925Z,10.00
2019-03-02T19:35:03.940Z,10.00
2019-03-02T19:37:33.913Z,10.00
2019-03-02T19:40:04.074Z,10.00
2019-03-02T19:42:33.880Z,10.00
2019-03-02T19:45:03.904Z,9.90
2019-03-02T19:47:33.488Z,9.90
2019-03-02T19:50:03.153Z,9.90
2019-03-02T19:52:44.597Z,9.90
2019-03-02T19:55:15.637Z,9.90
2019-03-02T19:57:45.396Z,9.90
2019-03-02T20:00:18.061Z,9.80
2019-03-02T20:02:47.747Z,9.90
2019-03-02T20:05:17.468Z,9.80
2019-03-02T20:07:47.124Z,9.80
2019-03-02T20:10:16.888Z,9.80
2019-03-02T20:12:46.880Z,9.70
2019-03-02T20:15:18.125Z,9.70
2019-03-02T20:17:48.104Z,9.70
2019-03-02T20:20:17.785Z,9.60
2019-03-02T20:22:47.656Z,9.60
2019-03-02T20:25:18.054Z,9.60
2019-03-02T20:27:48.671Z,9.60
2019-03-02T20:30:22.518Z,9.60
2019-03-02T20:32:53.314Z,9.60
2019-03-02T20:35:23.464Z,9.60
2019-03-02T20:37:53.269Z,9.60
2019-03-02T20:40:23.368Z,9.60
2019-03-02T20:42:53.624Z,9.60
2019-03-02T20:45:23.397Z,9.60
2019-03-02T20:47:53.700Z,9.60
2019-03-02T20:50:23.665Z,9.60
2019-03-02T20:52:53.885Z,9.60
2019-03-02T20:55:24.172Z,9.60
2019-03-02T20:57:53.856Z,9.70
2019-03-02T21:00:25.644Z,9.60
2019-03-02T21:02:55.949Z,9.60
2019-03-02T21:05:26.321Z,9.70
2019-03-02T21:07:56.358Z,9.70
2019-03-02T21:10:25.960Z,9.70
2019-03-02T21:12:56.161Z,9.70
2019-03-02T21:15:31.289Z,9.70
2019-03-02T21:18:01.325Z,9.70
2019-03-02T21:20:31.439Z,9.70
2019-03-02T21:23:01.608Z,9.70
2019-03-02T21:25:32.177Z,9.70
2019-03-02T21:28:08.409Z,9.70
2019-03-02T21:30:37.962Z,9.70
2019-03-02T21:33:07.524Z,9.70
2019-03-02T21:35:37.470Z,9.70
2019-03-02T21:38:07.569Z,9.70
2019-03-02T21:40:37.500Z,9.70
2019-03-02T21:43:07.121Z,9.70
2019-03-02T21:45:37.366Z,9.70
2019-03-02T21:48:07.020Z,9.70
2019-03-02T21:50:36.651Z,9.70
2019-03-02T21:53:06.556Z,9.70
2019-03-02T21:55:36.191Z,9.70
2019-03-02T21:58:05.996Z,9.70
2019-03-02T22:00:35.869Z,9.60
2019-03-02T22:03:05.965Z,9.70
2019-03-02T22:05:35.520Z,9.70
2019-03-02T22:08:05.677Z,9.70
2019-03-02T22:10:40.133Z,9.70
2019-03-02T22:13:09.718Z,9.70
2019-03-02T22:15:39.328Z,9.70
2019-03-02T22:18:08.872Z,9.70
2019-03-02T22:20:38.780Z,9.80
2019-03-02T22:23:23.531Z,9.80
2019-03-02T22:25:53.181Z,9.80
2019-03-02T22:28:22.833Z,9.80
2019-03-02T22:30:52.936Z,9.70
2019-03-02T22:33:22.524Z,9.70
2019-03-02T22:36:00.735Z,9.70
2019-03-02T22:38:30.904Z,9.80
2019-03-02T22:41:01.002Z,9.70
2019-03-02T22:43:31.154Z,9.70
2019-03-02T22:46:00.676Z,9.70
2019-03-02T22:48:35.361Z,9.70
2019-03-02T22:51:04.984Z,9.80
2019-03-02T22:53:34.552Z,9.70
2019-03-02T22:56:04.131Z,9.70
2019-03-02T22:58:32.837Z,9.70
2019-03-02T23:01:41.528Z,9.70
2019-03-02T23:04:13.526Z,9.70
2019-03-02T23:06:43.365Z,9.70
2019-03-02T23:09:13.082Z,9.70
2019-03-02T23:11:42.648Z,9.70
2019-03-02T23:14:12.496Z,9.70
2019-03-02T23:16:42.196Z,9.70
2019-03-02T23:19:12.396Z,9.70
2019-03-02T23:21:42.230Z,9.70
2019-03-02T23:24:23.997Z,9.70
2019-03-02T23:26:53.672Z,9.70
2019-03-02T23:29:23.505Z,9.70
2019-03-02T23:31:53.357Z,9.70
2019-03-02T23:34:23.171Z,9.70
2019-03-02T23:36:52.981Z,9.80
2019-03-02T23:39:22.784Z,9.70
2019-03-02T23:41:52.336Z,9.70
2019-03-02T23:44:21.877Z,9.70
2019-03-02T23:46:51.424Z,9.70
2019-03-02T23:49:29.845Z,9.80
2019-03-02T23:51:59.397Z,9.80
2019-03-02T23:54:29.236Z,9.80
2019-03-02T23:56:59.045Z,9.80
2019-03-02T23:59:28.640Z,9.50
